createdAt,value
2022-11-29T00:01:37.420Z,100866.53
2022-11-29T00:04:05.024Z,100863.91
2022-11-29T00:06:34.143Z,100858.56
2022-11-29T00:09:07.974Z,100859.50
2022-11-29T00:11:55.907Z,100866.56
2022-11-29T00:14:24.325Z,100859.44
2022-11-29T00:16:59.333Z,100853.41
2022-11-29T00:19:26.854Z,100843.72
2022-11-29T00:21:54.314Z,100853.34
2022-11-29T00:24:21.803Z,100851.59
2022-11-29T00:26:49.205Z,100846.34
2022-11-29T00:29:16.742Z,100835.75
2022-11-29T00:31:44.836Z,100844.63
2022-11-29T00:34:12.848Z,100839.31
2022-11-29T00:36:40.699Z,100838.38
2022-11-29T00:39:11.790Z,100837.53
2022-11-29T00:41:40.006Z,100834.84
2022-11-29T00:44:08.072Z,100843.63
2022-11-29T00:46:35.737Z,100836.53
2022-11-29T00:49:03.422Z,100834.81
2022-11-29T00:51:30.870Z,100842.75
2022-11-29T00:54:01.873Z,100840.91
2022-11-29T00:56:29.507Z,100845.28
2022-11-29T00:58:57.367Z,100839.13
2022-11-29T01:01:24.913Z,100841.75
2022-11-29T01:03:53.076Z,100847.94
2022-11-29T01:06:20.645Z,100840.06
2022-11-29T01:08:48.302Z,100837.41
2022-11-29T01:11:21.959Z,100838.25
2022-11-29T01:13:50.996Z,100840.88
2022-11-29T01:16:18.688Z,100843.53
2022-11-29T01:18:46.448Z,100838.22
2022-11-29T01:21:16.908Z,100825.97
2022-11-29T01:23:45.778Z,100836.53
2022-11-29T01:26:16.058Z,100837.28
2022-11-29T01:28:46.335Z,100836.47
2022-11-29T01:31:16.756Z,100835.53
2022-11-29T01:33:44.489Z,100835.47
2022-11-29T01:36:13.827Z,100836.34
2022-11-29T01:38:42.515Z,100835.47
2022-11-29T01:41:14.787Z,100832.84
2022-11-29T01:44:07.199Z,100841.63
2022-11-29T01:46:37.705Z,100838.16
2022-11-29T01:49:31.105Z,100837.25
2022-11-29T01:52:06.622Z,100836.34
2022-11-29T01:54:39.393Z,100831.97
2022-11-29T01:57:08.548Z,100823.13
2022-11-29T01:59:43.112Z,100828.44
2022-11-29T02:02:18.411Z,100821.41
2022-11-29T02:04:47.607Z,100825.88
2022-11-29T02:07:15.660Z,100823.31
2022-11-29T02:09:43.273Z,100821.59
2022-11-29T02:12:13.483Z,100818.00
2022-11-29T02:14:56.124Z,100810.91
2022-11-29T02:17:44.795Z,100810.13
2022-11-29T02:20:33.470Z,100804.84
2022-11-29T02:23:25.632Z,100805.69
2022-11-29T02:26:19.537Z,100811.88
2022-11-29T02:29:11.558Z,100813.50
2022-11-29T02:31:57.357Z,100812.59
2022-11-29T02:34:46.595Z,100814.38
2022-11-29T02:37:38.242Z,100797.72
2022-11-29T02:40:14.389Z,100814.38
2022-11-29T02:43:03.312Z,100809.97
2022-11-29T02:45:36.487Z,100806.47
2022-11-29T02:48:15.822Z,100801.22
2022-11-29T02:51:06.949Z,100795.91
2022-11-29T02:54:37.492Z,100793.34
2022-11-29T02:57:18.081Z,100799.41
2022-11-29T02:59:59.800Z,100797.59
2022-11-29T03:02:30.037Z,100793.16
2022-11-29T03:05:25.115Z,100790.63
2022-11-29T03:08:07.736Z,100787.16
2022-11-29T03:10:47.170Z,100787.16
2022-11-29T03:13:29.023Z,100793.34
2022-11-29T03:16:06.593Z,100796.81
2022-11-29T03:18:56.175Z,100794.22
2022-11-29T03:21:52.458Z,100790.72
2022-11-29T03:24:50.870Z,100792.44
2022-11-29T03:27:29.187Z,100799.56
2022-11-29T03:30:00.706Z,100792.47
2022-11-29T03:33:02.581Z,100801.38
2022-11-29T03:35:40.831Z,100797.84
2022-11-29T03:38:20.898Z,100793.44
2022-11-29T03:41:12.746Z,100796.91
2022-11-29T03:43:56.542Z,100793.34
2022-11-29T03:46:37.460Z,100791.59
2022-11-29T03:49:22.771Z,100793.34
2022-11-29T03:52:17.968Z,100788.97
2022-11-29T03:55:19.023Z,100794.22
2022-11-29T03:58:30.647Z,100787.19
2022-11-29T04:01:16.878Z,100789.81
2022-11-29T04:04:02.651Z,100783.66
2022-11-29T04:06:57.864Z,100789.84
2022-11-29T04:10:02.826Z,100783.75
2022-11-29T04:12:36.432Z,100788.06
2022-11-29T04:15:25.600Z,100785.41
2022-11-29T04:17:52.988Z,100794.25
2022-11-29T04:20:40.240Z,100789.88
2022-11-29T04:23:18.697Z,100789.81
2022-11-29T04:25:54.961Z,100792.41
2022-11-29T04:28:46.050Z,100785.41
2022-11-29T04:31:40.999Z,100787.16
2022-11-29T04:34:29.001Z,100793.34
2022-11-29T04:37:11.434Z,100785.47
2022-11-29T04:39:57.316Z,100788.94
2022-11-29T04:42:24.687Z,100789.78
2022-11-29T04:44:57.905Z,100795.16
2022-11-29T04:47:31.532Z,100791.63
2022-11-29T04:50:23.309Z,100796.03
2022-11-29T04:53:04.133Z,100793.44
2022-11-29T04:55:49.415Z,100797.00
2022-11-29T04:58:32.179Z,100792.53
2022-11-29T05:01:18.573Z,100797.75
2022-11-29T05:04:16.154Z,100799.50
2022-11-29T05:07:02.468Z,100803.03
2022-11-29T05:09:41.785Z,100798.63
2022-11-29T05:12:45.789Z,100795.16
2022-11-29T05:15:22.210Z,100803.97
2022-11-29T05:18:12.478Z,100804.84
2022-11-29T05:21:05.128Z,100800.47
2022-11-29T05:23:58.955Z,100803.09
2022-11-29T05:26:33.829Z,100810.09
2022-11-29T05:29:20.550Z,100802.97
2022-11-29T05:31:50.806Z,100802.16
2022-11-29T05:34:35.123Z,100803.03
2022-11-29T05:37:23.250Z,100809.16
2022-11-29T05:40:14.938Z,100807.41
2022-11-29T05:42:54.158Z,100812.66
2022-11-29T05:45:44.330Z,100806.50
2022-11-29T05:48:14.831Z,100810.03
2022-11-29T05:50:48.099Z,100809.13
2022-11-29T05:53:42.574Z,100810.91
2022-11-29T05:56:23.887Z,100816.19
2022-11-29T05:58:58.330Z,100818.00
2022-11-29T06:01:32.586Z,100825.09
2022-11-29T06:04:22.512Z,100820.69
2022-11-29T06:06:52.547Z,100825.97
2022-11-29T06:09:48.228Z,100818.88
2022-11-29T06:12:24.657Z,100823.31
2022-11-29T06:15:23.915Z,100831.22
2022-11-29T06:18:15.293Z,100824.22
2022-11-29T06:21:16.391Z,100825.13
2022-11-29T06:23:50.727Z,100830.47
2022-11-29T06:26:46.910Z,100833.13
2022-11-29T06:29:42.986Z,100825.13
2022-11-29T06:32:36.942Z,100827.78
2022-11-29T06:35:35.367Z,100830.34
2022-11-29T06:38:23.627Z,100832.16
2022-11-29T06:40:53.963Z,100830.38
2022-11-29T06:43:25.780Z,100837.47
2022-11-29T06:46:00.749Z,100836.50
2022-11-29T06:48:34.732Z,100833.88
2022-11-29T06:51:25.240Z,100840.78
2022-11-29T06:54:13.966Z,100841.63
2022-11-29T06:56:41.514Z,100850.44
2022-11-29T06:59:26.515Z,100843.41
2022-11-29T07:02:04.738Z,100846.06
2022-11-29T07:04:45.483Z,100844.31
2022-11-29T07:07:20.587Z,100848.75
2022-11-29T07:09:57.132Z,100844.31
2022-11-29T07:12:24.912Z,100851.31
2022-11-29T07:14:52.869Z,100845.13
2022-11-29T07:17:32.275Z,100855.72
2022-11-29T07:20:15.905Z,100853.06
2022-11-29T07:22:46.230Z,100845.16
2022-11-29T07:25:28.837Z,100852.19
2022-11-29T07:28:15.527Z,100851.31
2022-11-29T07:31:18.373Z,100852.25
2022-11-29T07:33:54.549Z,100844.28
2022-11-29T07:36:40.147Z,100845.13
2022-11-29T07:39:22.481Z,100850.50
2022-11-29T07:42:16.009Z,100849.63
2022-11-29T07:45:06.351Z,100848.63
2022-11-29T07:47:35.926Z,100845.97
2022-11-29T07:50:04.746Z,100847.72
2022-11-29T07:52:33.169Z,100840.53
2022-11-29T07:55:05.160Z,100835.25
2022-11-29T07:57:32.630Z,100845.78
2022-11-29T08:00:00.091Z,100850.25
2022-11-29T08:02:31.832Z,100851.94
2022-11-29T08:04:59.465Z,100844.81
2022-11-29T08:07:26.920Z,100845.84
2022-11-29T08:09:54.348Z,100850.19
2022-11-29T08:12:22.180Z,100848.44
2022-11-29T08:14:49.700Z,100846.59
2022-11-29T08:17:18.575Z,100845.63
2022-11-29T08:19:45.978Z,100857.06
2022-11-29T08:22:13.703Z,100850.00
2022-11-29T08:24:41.211Z,100852.63
2022-11-29T08:27:08.754Z,100856.16
2022-11-29T08:29:36.168Z,100849.03
2022-11-29T08:32:04.060Z,100856.00
2022-11-29T08:34:31.584Z,100856.91
2022-11-29T08:36:58.963Z,100854.31
2022-11-29T08:39:26.488Z,100859.59
2022-11-29T08:41:53.991Z,100857.78
2022-11-29T08:44:21.410Z,100856.78
2022-11-29T08:47:07.092Z,100863.78
2022-11-29T08:49:34.483Z,100858.56
2022-11-29T08:52:30.936Z,100863.88
2022-11-29T08:55:30.802Z,100863.88
2022-11-29T08:58:10.900Z,100874.44
2022-11-29T09:00:39.674Z,100869.94
2022-11-29T09:03:26.770Z,100874.28
2022-11-29T09:05:54.359Z,100873.56
2022-11-29T09:08:21.816Z,100869.03
2022-11-29T09:10:49.749Z,100870.75
2022-11-29T09:13:18.170Z,100881.38
2022-11-29T09:15:45.651Z,100883.19
2022-11-29T09:18:13.035Z,100895.47
2022-11-29T09:20:43.990Z,100888.28
2022-11-29T09:23:13.194Z,100888.25
2022-11-29T09:25:40.770Z,100892.56
2022-11-29T09:28:08.648Z,100887.06
2022-11-29T09:30:38.122Z,100891.59
2022-11-29T09:33:05.606Z,100893.44
2022-11-29T09:35:51.459Z,100902.03
2022-11-29T09:38:19.324Z,100898.47
2022-11-29T09:41:02.866Z,100891.41
2022-11-29T09:43:47.094Z,100898.47
2022-11-29T09:46:36.200Z,100897.59
2022-11-29T09:49:22.166Z,100898.47
2022-11-29T09:52:02.244Z,100902.91
2022-11-29T09:54:57.310Z,100894.97
2022-11-29T09:57:27.077Z,100898.47
2022-11-29T10:00:01.612Z,100894.84
2022-11-29T10:02:36.725Z,100897.59
2022-11-29T10:05:17.073Z,100894.94
2022-11-29T10:08:06.623Z,100887.94
2022-11-29T10:10:43.207Z,100886.13
2022-11-29T10:13:26.000Z,100884.22
2022-11-29T10:15:56.637Z,100900.09
2022-11-29T10:18:32.403Z,100889.44
2022-11-29T10:21:10.914Z,100892.09
2022-11-29T10:23:52.352Z,100883.22
2022-11-29T10:26:20.842Z,100885.84
2022-11-29T10:28:49.389Z,100884.94
2022-11-29T10:31:21.385Z,100884.06
2022-11-29T10:33:49.633Z,100870.78
2022-11-29T10:36:25.295Z,100876.84
2022-11-29T10:38:59.253Z,100867.28
2022-11-29T10:41:27.328Z,100869.88
2022-11-29T10:43:59.974Z,100869.88
2022-11-29T10:46:29.922Z,100864.50
2022-11-29T10:48:59.735Z,100864.47
2022-11-29T10:51:27.726Z,100863.44
2022-11-29T10:53:56.947Z,100862.47
2022-11-29T10:56:29.622Z,100856.25
2022-11-29T10:59:03.268Z,100863.31
2022-11-29T11:01:38.383Z,100858.94
2022-11-29T11:04:10.008Z,100854.50
2022-11-29T11:06:43.631Z,100859.81
2022-11-29T11:09:21.304Z,100860.88
2022-11-29T11:11:58.767Z,100853.91
2022-11-29T11:14:28.544Z,100860.09
2022-11-29T11:16:56.389Z,100848.56
2022-11-29T11:19:28.360Z,100860.03
2022-11-29T11:21:58.107Z,100850.16
2022-11-29T11:24:29.288Z,100866.88
2022-11-29T11:26:57.205Z,100864.38
2022-11-29T11:29:27.748Z,100849.50
2022-11-29T11:31:58.049Z,100860.03
2022-11-29T11:34:36.048Z,100863.50
2022-11-29T11:37:15.586Z,100862.56
2022-11-29T11:39:44.361Z,100858.03
2022-11-29T11:42:37.694Z,100849.19
2022-11-29T11:45:11.249Z,100860.81
2022-11-29T11:47:51.244Z,100858.03
2022-11-29T11:50:42.576Z,100857.91
2022-11-29T11:53:36.578Z,100849.13
2022-11-29T11:56:07.736Z,100860.38
2022-11-29T11:58:49.148Z,100859.69
2022-11-29T12:01:30.545Z,100863.94
2022-11-29T12:04:16.898Z,100871.03
2022-11-29T12:06:57.464Z,100867.56
2022-11-29T12:09:34.468Z,100864.03
2022-11-29T12:12:13.660Z,100862.16
2022-11-29T12:14:53.695Z,100867.59
2022-11-29T12:17:27.554Z,100863.78
2022-11-29T12:20:20.648Z,100862.19
2022-11-29T12:22:53.972Z,100863.03
2022-11-29T12:25:27.356Z,100868.28
2022-11-29T12:27:54.984Z,100870.00
2022-11-29T12:30:22.518Z,100865.56
2022-11-29T12:33:26.517Z,100867.41
2022-11-29T12:36:03.632Z,100871.81
2022-11-29T12:38:33.796Z,100864.72
2022-11-29T12:41:32.183Z,100867.34
2022-11-29T12:44:08.139Z,100862.03
2022-11-29T12:46:36.082Z,100872.72
2022-11-29T12:49:12.521Z,100863.72
2022-11-29T12:51:52.450Z,100860.88
2022-11-29T12:54:46.328Z,100864.59
2022-11-29T12:57:38.209Z,100867.13
2022-11-29T13:00:17.521Z,100863.78
2022-11-29T13:03:20.963Z,100865.47
2022-11-29T13:06:12.474Z,100861.13
2022-11-29T13:08:48.976Z,100864.66
2022-11-29T13:11:36.280Z,100856.72
2022-11-29T13:14:41.992Z,100865.44
2022-11-29T13:17:34.132Z,100868.09
2022-11-29T13:20:33.641Z,100856.63
2022-11-29T13:23:20.842Z,100861.88
2022-11-29T13:25:52.428Z,100863.78
2022-11-29T13:28:33.040Z,100866.44
2022-11-29T13:31:02.844Z,100857.53
2022-11-29T13:33:42.398Z,100860.22
2022-11-29T13:36:44.998Z,100858.38
2022-11-29T13:39:15.332Z,100861.72
2022-11-29T13:42:10.448Z,100847.72
2022-11-29T13:44:57.181Z,100844.22
2022-11-29T13:47:24.867Z,100855.72
2022-11-29T13:50:04.436Z,100861.00
2022-11-29T13:52:43.706Z,100863.75
2022-11-29T13:55:11.632Z,100864.50
2022-11-29T13:58:15.505Z,100862.84
2022-11-29T14:00:44.797Z,100858.34
2022-11-29T14:03:24.555Z,100850.44
2022-11-29T14:05:53.544Z,100843.28
2022-11-29T14:08:34.090Z,100860.09
2022-11-29T14:11:15.189Z,100858.47
2022-11-29T14:13:54.276Z,100853.09
2022-11-29T14:17:00.325Z,100852.06
2022-11-29T14:19:33.412Z,100855.91
2022-11-29T14:22:07.068Z,100856.81
2022-11-29T14:24:35.437Z,100862.13
2022-11-29T14:27:23.194Z,100855.84
2022-11-29T14:29:55.165Z,100855.84
2022-11-29T14:32:24.609Z,100866.44
2022-11-29T14:35:02.836Z,100852.31
2022-11-29T14:37:42.252Z,100854.13
2022-11-29T14:40:35.053Z,100859.50
2022-11-29T14:43:05.969Z,100863.13
2022-11-29T14:45:35.306Z,100856.81
2022-11-29T14:48:03.345Z,100854.28
2022-11-29T14:50:34.071Z,100873.72
2022-11-29T14:53:02.068Z,100851.69
2022-11-29T14:55:35.618Z,100850.78
2022-11-29T14:58:04.020Z,100860.47
2022-11-29T15:00:57.744Z,100854.28
2022-11-29T15:03:33.873Z,100862.31
2022-11-29T15:06:15.593Z,100856.84
2022-11-29T15:08:56.095Z,100862.19
2022-11-29T15:11:34.245Z,100869.34
2022-11-29T15:14:48.376Z,100869.34
2022-11-29T15:17:40.877Z,100863.19
2022-11-29T15:20:35.126Z,100864.97
2022-11-29T15:23:06.386Z,100855.38
2022-11-29T15:25:34.660Z,100858.88
2022-11-29T15:28:05.858Z,100856.38
2022-11-29T15:30:39.484Z,100858.09
2022-11-29T15:33:20.161Z,100853.75
2022-11-29T15:35:50.715Z,100859.81
2022-11-29T15:38:20.030Z,100846.69
2022-11-29T15:40:55.231Z,100859.28
2022-11-29T15:43:32.541Z,100862.66
2022-11-29T15:46:01.221Z,100854.78
2022-11-29T15:48:33.142Z,100859.22
2022-11-29T15:51:24.382Z,100865.38
2022-11-29T15:54:16.411Z,100862.66
2022-11-29T15:56:47.881Z,100864.47
2022-11-29T15:59:21.839Z,100860.88
2022-11-29T16:01:53.230Z,100859.22
2022-11-29T16:04:22.178Z,100861.88
2022-11-29T16:06:50.347Z,100856.56
2022-11-29T16:09:42.420Z,100861.88
2022-11-29T16:12:15.239Z,100861.91
2022-11-29T16:15:24.025Z,100861.06
2022-11-29T16:17:52.236Z,100862.13
2022-11-29T16:20:19.822Z,100855.03
2022-11-29T16:22:47.231Z,100858.56
2022-11-29T16:25:19.764Z,100865.59
2022-11-29T16:27:47.731Z,100866.56
2022-11-29T16:30:23.647Z,100863.03
2022-11-29T16:33:03.400Z,100868.31
2022-11-29T16:35:36.261Z,100866.56
2022-11-29T16:38:04.583Z,100862.16
2022-11-29T16:40:35.539Z,100867.53
2022-11-29T16:43:02.947Z,100869.31
2022-11-29T16:45:39.530Z,100862.16
2022-11-29T16:48:31.479Z,100870.13
2022-11-29T16:51:11.145Z,100862.34
2022-11-29T16:53:42.254Z,100854.31
2022-11-29T16:56:14.780Z,100863.25
2022-11-29T16:59:25.136Z,100860.72
2022-11-29T17:01:32.770Z,100863.44
2022-11-29T17:04:00.642Z,100865.19
2022-11-29T17:06:29.580Z,100868.72
2022-11-29T17:08:59.366Z,100871.41
2022-11-29T17:11:26.949Z,100879.28
2022-11-29T17:13:54.484Z,100873.97
2022-11-29T17:16:24.121Z,100875.75
2022-11-29T17:18:52.900Z,100890.72
2022-11-29T17:21:25.441Z,100882.81
2022-11-29T17:23:53.841Z,100876.72
2022-11-29T17:26:22.261Z,100879.28
2022-11-29T17:28:51.711Z,100881.03
2022-11-29T17:31:22.068Z,100885.47
2022-11-29T17:33:50.276Z,100896.94
2022-11-29T17:36:19.817Z,100894.41
2022-11-29T17:38:47.855Z,100906.91
2022-11-29T17:41:18.202Z,100905.09
2022-11-29T17:43:45.704Z,100908.66
2022-11-29T17:46:21.735Z,100917.47
2022-11-29T17:48:50.108Z,100912.22
2022-11-29T17:51:49.827Z,100916.53
2022-11-29T17:54:09.429Z,100914.78
2022-11-29T17:56:36.991Z,100910.44
2022-11-29T17:59:05.421Z,100925.41
2022-11-29T18:01:35.823Z,100932.59
2022-11-29T18:04:06.023Z,100920.31
2022-11-29T18:06:39.398Z,100899.97
2022-11-29T18:09:09.149Z,100915.88
2022-11-29T18:11:46.923Z,100913.22
2022-11-29T18:14:28.210Z,100918.59
2022-11-29T18:16:55.888Z,100908.84
2022-11-29T18:19:23.576Z,100914.19
2022-11-29T18:21:51.726Z,100923.94
2022-11-29T18:24:19.391Z,100932.00
2022-11-29T18:26:47.369Z,100928.53
2022-11-29T18:29:14.964Z,100934.72
2022-11-29T18:31:44.678Z,100943.50
2022-11-29T18:34:14.019Z,100933.06
2022-11-29T18:36:46.913Z,100937.47
2022-11-29T18:39:19.064Z,100945.41
2022-11-29T18:41:48.799Z,100944.53
2022-11-29T18:44:19.577Z,100935.72
2022-11-29T18:46:47.958Z,100940.97
2022-11-29T18:49:17.245Z,100948.00
2022-11-29T18:51:46.143Z,100945.41
2022-11-29T18:54:15.471Z,100953.31
2022-11-29T18:56:44.469Z,100954.16
2022-11-29T18:59:16.617Z,100959.44
2022-11-29T19:01:46.225Z,100965.69
2022-11-29T19:04:19.986Z,100966.59
2022-11-29T19:06:47.755Z,100974.59
2022-11-29T19:09:18.518Z,100964.00
2022-11-29T19:11:45.965Z,100969.25
2022-11-29T19:14:13.976Z,100971.94
2022-11-29T19:16:43.835Z,100982.53
2022-11-29T19:19:12.192Z,100971.94
2022-11-29T19:21:40.413Z,100980.69
2022-11-29T19:24:14.187Z,100978.84
2022-11-29T19:26:44.658Z,100975.28
2022-11-29T19:29:13.433Z,100984.13
2022-11-29T19:31:41.733Z,100984.16
2022-11-29T19:34:09.103Z,100988.56
2022-11-29T19:36:43.093Z,100985.88
2022-11-29T19:39:14.208Z,100990.34
2022-11-29T19:41:43.991Z,100994.69
2022-11-29T19:44:12.389Z,100984.13
2022-11-29T19:46:42.680Z,100983.28
2022-11-29T19:49:10.816Z,100992.06
2022-11-29T19:51:38.643Z,100994.72
2022-11-29T19:54:07.546Z,100996.53
2022-11-29T19:56:35.288Z,100983.31
2022-11-29T19:59:03.059Z,100988.63
2022-11-29T20:01:39.660Z,100982.44
2022-11-29T20:04:10.076Z,101001.88
2022-11-29T20:06:37.969Z,100997.47
2022-11-29T20:09:06.495Z,100997.50
2022-11-29T20:11:33.992Z,101001.97
2022-11-29T20:14:03.010Z,101007.31
2022-11-29T20:16:31.240Z,101002.91
2022-11-29T20:18:59.107Z,101000.25
2022-11-29T20:21:32.242Z,101001.22
2022-11-29T20:24:02.801Z,101011.09
2022-11-29T20:26:32.319Z,101003.16
2022-11-29T20:29:00.490Z,101002.34
2022-11-29T20:31:28.452Z,100997.97
2022-11-29T20:33:57.499Z,100998.88
2022-11-29T20:36:24.914Z,101005.84
2022-11-29T20:39:03.173Z,101007.63
2022-11-29T20:41:42.442Z,101003.22
2022-11-29T20:44:16.201Z,101002.34
2022-11-29T20:46:43.832Z,101008.56
2022-11-29T20:49:15.077Z,101000.66
2022-11-29T20:51:51.356Z,101005.94
2022-11-29T20:54:20.052Z,101004.16
2022-11-29T20:56:47.504Z,101011.25
2022-11-29T20:59:14.990Z,101013.88
2022-11-29T21:01:43.588Z,101013.03
2022-11-29T21:04:11.200Z,101007.72
2022-11-29T21:06:39.301Z,101013.00
2022-11-29T21:09:07.064Z,101015.66
2022-11-29T21:11:34.856Z,101010.34
2022-11-29T21:14:04.568Z,101011.22
2022-11-29T21:16:32.508Z,101009.50
2022-11-29T21:19:02.342Z,101000.69
2022-11-29T21:21:55.645Z,101000.69
2022-11-29T21:24:54.729Z,101005.06
2022-11-29T21:27:33.842Z,100996.28
2022-11-29T21:30:05.436Z,101002.47
2022-11-29T21:32:33.441Z,100996.28
2022-11-29T21:35:00.831Z,100997.16
2022-11-29T21:37:30.876Z,100998.94
2022-11-29T21:39:58.504Z,100997.16
2022-11-29T21:42:26.997Z,100996.28
2022-11-29T21:44:54.410Z,100992.75
2022-11-29T21:47:21.872Z,100985.75
2022-11-29T21:49:49.790Z,100979.56
2022-11-29T21:52:22.219Z,100984.84
2022-11-29T21:54:50.292Z,100985.72
2022-11-29T21:57:26.100Z,100990.13
2022-11-29T21:59:53.821Z,100986.59
2022-11-29T22:02:21.486Z,100991.88
2022-11-29T22:04:49.471Z,100975.16
2022-11-29T22:07:17.108Z,100966.34
2022-11-29T22:09:44.619Z,100978.69
2022-11-29T22:12:32.489Z,100972.53
2022-11-29T22:14:59.641Z,100979.56
2022-11-29T22:17:27.114Z,100980.41
2022-11-29T22:19:55.387Z,100981.34
2022-11-29T22:22:25.957Z,100976.91
2022-11-29T22:24:55.510Z,100978.69
2022-11-29T22:27:23.152Z,100979.50
2022-11-29T22:29:50.698Z,100980.41
2022-11-29T22:32:18.267Z,100995.34
2022-11-29T22:34:46.146Z,100977.69
2022-11-29T22:37:13.906Z,100980.31
2022-11-29T22:39:41.423Z,100986.50
2022-11-29T22:42:08.921Z,100974.19
2022-11-29T22:44:36.666Z,100971.53
2022-11-29T22:47:04.493Z,100968.03
2022-11-29T22:49:33.345Z,100956.66
2022-11-29T22:52:00.879Z,100976.00
2022-11-29T22:54:28.434Z,100976.00
2022-11-29T22:56:55.940Z,100979.50
2022-11-29T22:59:23.565Z,100969.84
2022-11-29T23:01:51.226Z,100975.09
2022-11-29T23:04:18.855Z,100965.41
2022-11-29T23:06:46.999Z,100983.00
2022-11-29T23:09:17.108Z,100979.44
2022-11-29T23:11:46.108Z,100989.19
2022-11-29T23:14:14.212Z,100984.75
2022-11-29T23:16:41.916Z,100972.44
2022-11-29T23:19:09.524Z,100981.28
2022-11-29T23:21:39.468Z,100978.59
2022-11-29T23:24:07.755Z,100980.34
2022-11-29T23:26:39.747Z,100980.31
2022-11-29T23:29:18.554Z,100979.44
2022-11-29T23:31:46.968Z,100961.81
2022-11-29T23:34:14.756Z,100964.50
2022-11-29T23:36:42.350Z,100966.25
2022-11-29T23:39:10.414Z,100970.69
2022-11-29T23:41:37.915Z,100975.13
2022-11-29T23:44:06.822Z,100975.13
2022-11-29T23:46:35.445Z,100972.47
2022-11-29T23:49:03.205Z,100972.41
2022-11-29T23:51:30.947Z,100983.00
2022-11-29T23:53:58.412Z,100971.53
2022-11-29T23:56:28.951Z,100967.16
2022-11-29T23:58:57.417Z,100983.94
